createdAt,value
2023-01-09T00:04:14.327Z,3.95
2023-01-09T00:09:15.963Z,6.00
2023-01-09T00:14:18.982Z,5.90
2023-01-09T00:19:20.610Z,7.53
2023-01-09T00:24:22.205Z,3.80
2023-01-09T00:29:23.797Z,3.78
2023-01-09T00:34:25.943Z,3.97
2023-01-09T00:39:27.573Z,4.13
2023-01-09T00:44:36.855Z,5.13
2023-01-09T00:49:38.530Z,3.15
2023-01-09T00:54:40.978Z,1.42
2023-01-09T00:59:43.222Z,3.53
2023-01-09T01:05:03.623Z,4.38
2023-01-09T01:10:16.663Z,2.70
2023-01-09T01:15:19.359Z,3.97
2023-01-09T01:20:21.013Z,5.70
2023-01-09T01:25:23.354Z,4.88
2023-01-09T01:30:24.978Z,3.13
2023-01-09T01:35:26.913Z,2.30
2023-01-09T01:40:29.240Z,1.08
2023-01-09T01:45:30.969Z,2.22
2023-01-09T01:50:44.677Z,1.17
2023-01-09T01:56:10.936Z,1.15
2023-01-09T02:01:12.771Z,2.58
2023-01-09T02:06:15.217Z,2.80
2023-01-09T02:11:19.521Z,2.63
2023-01-09T02:16:49.145Z,1.38
2023-01-09T02:22:07.592Z,1.92
2023-01-09T02:27:18.295Z,1.70
2023-01-09T02:32:37.550Z,2.40
2023-01-09T02:37:44.719Z,4.25
2023-01-09T02:42:48.411Z,10.40
2023-01-09T02:47:50.115Z,2.05
2023-01-09T02:53:21.785Z,3.03
2023-01-09T02:58:41.345Z,3.72
2023-01-09T03:04:12.862Z,0.85
2023-01-09T03:09:20.390Z,2.45
2023-01-09T03:14:25.682Z,1.02
2023-01-09T03:19:31.615Z,1.05
2023-01-09T03:24:33.384Z,0.70
2023-01-09T03:29:37.398Z,0.70
2023-01-09T03:34:39.047Z,0.88
2023-01-09T03:39:40.836Z,1.17
2023-01-09T03:44:42.428Z,1.15
2023-01-09T03:49:44.000Z,1.02
2023-01-09T03:54:45.580Z,3.30
2023-01-09T03:59:47.184Z,1.20
2023-01-09T04:04:48.820Z,2.08
2023-01-09T04:09:50.449Z,0.68
2023-01-09T04:14:52.048Z,2.08
2023-01-09T04:19:53.664Z,1.90
2023-01-09T04:24:55.244Z,0.70
2023-01-09T04:29:57.013Z,1.80
2023-01-09T04:34:58.692Z,1.00
2023-01-09T04:40:00.252Z,0.90
2023-01-09T04:45:01.952Z,0.95
2023-01-09T04:50:04.120Z,1.65
2023-01-09T04:55:07.581Z,1.85
2023-01-09T05:00:12.081Z,1.10
2023-01-09T05:05:13.704Z,2.85
2023-01-09T05:10:15.498Z,2.97
2023-01-09T05:15:17.144Z,2.88
2023-01-09T05:20:18.839Z,1.88
2023-01-09T05:25:20.418Z,2.90
2023-01-09T05:30:22.017Z,6.25
2023-01-09T05:35:23.755Z,4.97
2023-01-09T05:40:29.307Z,3.97
2023-01-09T05:45:34.374Z,2.28
2023-01-09T05:50:36.040Z,1.63
2023-01-09T05:55:37.614Z,3.95
2023-01-09T06:00:39.228Z,3.60
2023-01-09T06:05:40.899Z,7.07
2023-01-09T06:10:42.516Z,4.75
2023-01-09T06:15:44.130Z,5.32
2023-01-09T06:20:46.105Z,6.28
2023-01-09T06:25:47.687Z,6.40
2023-01-09T06:30:52.070Z,7.90
2023-01-09T06:35:53.742Z,7.65
2023-01-09T06:40:55.365Z,5.95
2023-01-09T06:45:57.546Z,5.82
2023-01-09T06:50:59.221Z,6.07
2023-01-09T06:56:02.803Z,7.05
2023-01-09T07:01:04.636Z,6.22
2023-01-09T07:06:06.652Z,6.60
2023-01-09T07:11:08.214Z,5.20
2023-01-09T07:16:09.891Z,6.50
2023-01-09T07:21:11.463Z,4.88
2023-01-09T07:26:13.042Z,6.20
2023-01-09T07:31:14.696Z,5.13
2023-01-09T07:36:16.368Z,7.43
2023-01-09T07:41:18.004Z,6.88
2023-01-09T07:46:19.618Z,3.17
2023-01-09T07:51:21.439Z,4.43
2023-01-09T07:56:23.076Z,4.82
2023-01-09T08:01:24.768Z,5.72
2023-01-09T08:06:26.512Z,4.18
2023-01-09T08:11:28.369Z,3.72
2023-01-09T08:16:30.078Z,5.70
2023-01-09T08:21:31.886Z,3.95
2023-01-09T08:26:33.498Z,5.03
2023-01-09T08:31:35.164Z,3.30
2023-01-09T08:36:38.040Z,5.00
2023-01-09T08:41:58.176Z,4.65
2023-01-09T08:47:05.732Z,3.30
2023-01-09T08:52:07.880Z,4.60
2023-01-09T08:57:09.518Z,3.58
2023-01-09T09:02:11.111Z,3.15
2023-01-09T09:07:12.721Z,4.32
2023-01-09T09:12:14.364Z,2.80
2023-01-09T09:17:15.939Z,5.40
2023-01-09T09:22:17.520Z,2.25
2023-01-09T09:27:19.438Z,2.00
2023-01-09T09:32:21.023Z,3.05
2023-01-09T09:37:22.605Z,3.83
2023-01-09T09:42:55.613Z,4.50
2023-01-09T09:48:20.497Z,3.67
2023-01-09T09:53:27.462Z,4.97
2023-01-09T09:58:29.106Z,4.97
2023-01-09T10:03:39.303Z,5.05
2023-01-09T10:08:55.701Z,3.13
2023-01-09T10:14:13.188Z,2.88
2023-01-09T10:19:33.549Z,3.85
2023-01-09T10:24:53.379Z,4.55
2023-01-09T10:30:28.693Z,5.40
2023-01-09T10:35:47.961Z,4.90
2023-01-09T10:41:06.200Z,3.80
2023-01-09T10:46:24.681Z,3.63
2023-01-09T10:51:38.573Z,5.22
2023-01-09T10:56:44.623Z,3.72
2023-01-09T11:01:46.404Z,3.40
2023-01-09T11:06:52.900Z,3.88
2023-01-09T11:11:54.545Z,4.13
2023-01-09T11:16:58.620Z,2.97
2023-01-09T11:22:17.933Z,4.45
2023-01-09T11:27:24.609Z,3.20
2023-01-09T11:32:26.326Z,2.33
2023-01-09T11:37:30.631Z,4.88
2023-01-09T11:42:50.974Z,2.97
2023-01-09T11:47:52.694Z,3.80
2023-01-09T11:53:15.362Z,3.00
2023-01-09T11:58:21.119Z,3.47
2023-01-09T12:03:30.958Z,4.07
2023-01-09T12:08:41.507Z,2.30
2023-01-09T12:14:10.441Z,3.03
2023-01-09T12:19:32.233Z,2.45
2023-01-09T12:24:46.900Z,2.50
2023-01-09T12:30:12.796Z,4.45
2023-01-09T12:35:32.485Z,5.28
2023-01-09T12:40:56.039Z,3.60
2023-01-09T12:46:20.178Z,1.58
2023-01-09T12:51:32.930Z,4.03
2023-01-09T12:56:43.169Z,7.55
2023-01-09T13:01:49.926Z,4.57
2023-01-09T13:07:00.750Z,8.25
2023-01-09T13:12:09.081Z,6.60
2023-01-09T13:17:30.318Z,4.45
2023-01-09T13:22:32.518Z,2.40
2023-01-09T13:27:40.308Z,2.08
2023-01-09T13:33:20.706Z,2.50
2023-01-09T13:38:25.238Z,1.85
2023-01-09T13:43:26.910Z,3.67
2023-01-09T13:48:39.744Z,1.55
2023-01-09T13:53:41.337Z,2.13
2023-01-09T13:58:54.878Z,2.67
2023-01-09T14:04:15.212Z,3.42
2023-01-09T14:09:22.740Z,2.35
2023-01-09T14:14:31.400Z,3.92
2023-01-09T14:19:38.836Z,2.13
2023-01-09T14:24:44.085Z,3.00
2023-01-09T14:29:47.442Z,2.17
2023-01-09T14:35:17.807Z,2.92
2023-01-09T14:40:23.575Z,2.72
2023-01-09T14:45:27.503Z,3.10
2023-01-09T14:50:45.120Z,4.53
2023-01-09T14:55:58.054Z,2.97
2023-01-09T15:01:27.753Z,2.55
2023-01-09T15:06:34.656Z,3.42
2023-01-09T15:11:39.611Z,5.20
2023-01-09T15:16:45.847Z,3.70
2023-01-09T15:22:05.750Z,3.45
2023-01-09T15:27:21.945Z,3.50
2023-01-09T15:32:29.960Z,1.75
2023-01-09T15:37:39.136Z,1.77
2023-01-09T15:42:57.483Z,4.35
2023-01-09T15:48:26.974Z,3.00
2023-01-09T15:53:29.807Z,7.32
2023-01-09T15:58:37.001Z,4.13
2023-01-09T16:03:39.673Z,5.78
2023-01-09T16:08:50.016Z,2.90
2023-01-09T16:13:52.525Z,2.72
2023-01-09T16:18:55.618Z,2.45
2023-01-09T16:24:35.144Z,2.85
2023-01-09T16:29:38.979Z,2.90
2023-01-09T16:34:42.456Z,4.45
2023-01-09T16:40:21.112Z,5.38
2023-01-09T16:45:26.127Z,13.45
2023-01-09T16:50:28.260Z,7.22
2023-01-09T16:55:30.554Z,8.27
2023-01-09T17:00:32.203Z,7.53
2023-01-09T17:05:33.843Z,6.38
2023-01-09T17:10:35.439Z,6.20
2023-01-09T17:15:37.600Z,6.18
2023-01-09T17:20:40.910Z,4.35
2023-01-09T17:26:01.698Z,4.05
2023-01-09T17:31:06.704Z,4.75
2023-01-09T17:36:32.225Z,5.50
2023-01-09T17:41:34.390Z,6.75
2023-01-09T17:46:38.461Z,4.60
2023-01-09T17:51:40.212Z,5.60
2023-01-09T17:56:50.878Z,4.57
2023-01-09T18:01:52.596Z,6.35
2023-01-09T18:06:54.671Z,5.82
2023-01-09T18:11:56.330Z,3.63
2023-01-09T18:16:58.086Z,5.05
2023-01-09T18:21:59.979Z,3.28
2023-01-09T18:27:01.553Z,8.40
2023-01-09T18:32:03.368Z,5.80
2023-01-09T18:37:05.517Z,3.15
2023-01-09T18:42:07.501Z,8.20
2023-01-09T18:47:09.233Z,6.57
2023-01-09T18:52:10.864Z,4.57
2023-01-09T18:57:12.510Z,7.65
2023-01-09T19:02:22.375Z,5.22
2023-01-09T19:07:24.078Z,5.63
2023-01-09T19:12:25.799Z,4.68
2023-01-09T19:17:27.425Z,4.82
2023-01-09T19:22:29.134Z,6.43
2023-01-09T19:27:30.829Z,7.32
2023-01-09T19:32:32.643Z,4.57
2023-01-09T19:37:35.142Z,7.55
2023-01-09T19:42:36.821Z,8.02
2023-01-09T19:47:38.467Z,7.05
2023-01-09T19:52:43.228Z,6.70
2023-01-09T19:57:45.281Z,4.43
2023-01-09T20:02:49.618Z,7.28
2023-01-09T20:07:55.083Z,6.55
2023-01-09T20:12:56.739Z,17.27
2023-01-09T20:17:58.456Z,9.65
2023-01-09T20:23:00.254Z,7.90
2023-01-09T20:28:02.043Z,6.60
2023-01-09T20:33:03.750Z,6.47
2023-01-09T20:38:05.699Z,7.30
2023-01-09T20:43:15.943Z,6.72
2023-01-09T20:48:17.946Z,7.20
2023-01-09T20:53:19.697Z,7.25
2023-01-09T20:58:22.467Z,9.02
2023-01-09T21:03:25.270Z,8.48
2023-01-09T21:08:26.869Z,9.48
2023-01-09T21:13:28.958Z,8.32
2023-01-09T21:18:31.549Z,5.22
2023-01-09T21:23:33.911Z,4.22
2023-01-09T21:28:45.333Z,5.47
2023-01-09T21:33:47.749Z,5.25
2023-01-09T21:38:52.133Z,5.40
2023-01-09T21:44:12.636Z,4.82
2023-01-09T21:49:14.250Z,8.05
2023-01-09T21:54:16.079Z,7.97
2023-01-09T21:59:17.885Z,5.00
2023-01-09T22:04:21.522Z,5.28
2023-01-09T22:09:23.211Z,4.63
2023-01-09T22:14:24.764Z,5.22
2023-01-09T22:19:28.144Z,5.32
2023-01-09T22:24:29.961Z,3.35
2023-01-09T22:29:31.534Z,3.25
2023-01-09T22:34:33.125Z,3.25
2023-01-09T22:39:34.817Z,3.58
2023-01-09T22:44:36.392Z,2.40
2023-01-09T22:49:51.866Z,2.58
2023-01-09T22:54:54.217Z,2.90
2023-01-09T22:59:55.856Z,4.07
2023-01-09T23:05:00.249Z,3.60
2023-01-09T23:10:02.177Z,2.10
2023-01-09T23:15:04.024Z,2.30
2023-01-09T23:20:06.347Z,3.58
2023-01-09T23:25:08.463Z,3.28
2023-01-09T23:30:10.853Z,4.20
2023-01-09T23:35:12.644Z,3.47
2023-01-09T23:40:14.236Z,3.85
2023-01-09T23:45:15.894Z,3.25
2023-01-09T23:50:17.733Z,3.53
2023-01-09T23:55:19.419Z,5.38
